Elkins-Randolph Co-Jennings Randolph Field Elkins US
ICAO: KEKN
IATA: EKN
Category: Medium
Scheduled Services: No

Elevation: 1987 ft
TransAlt. 18000 ft.

Airport Communications:
CLARKSBURG APP/DEP:121.15
ASOS:119.275
CTAF:123.6
RDO:122.2

KEKN Zoom In..

If you have problems with the map follow the link
https://www.worldairports.se/pages/airport.php?
ICAO=KEKN

Runways:

(A) RW 05 length 4501 ft width 140 ft
---- / hdg 46

(B) RW 14 length 4544 ft width 140 ft
---- / hdg 136

(C) RW 23 length 4501 ft width 140 ft
---- / hdg 226

(D) RW 32 length 4544 ft width 140 ft
---- / hdg 316

Location; KEKN
Day. 18 / Time. 12.51 Zulu
* Altimeter: 30.23
* Temperature: 02° c. 35.6°f.
* Wind from: 180° Speed 07 kn.
Dewpoint: -11° c.
Visibility: 10 Statute Miles.
Clouds: Overcast 6500 ft.

KEKN 181251Z AUTO 18007KT 10SM OVC065 02/M11 A3023 RMK AO2 SLP260 T00221106


Wind From 180°
Speed 07 kn.

 
 
jpsmedia worldairports.se 2020   terms of use